PWSweather.com
Personal Weather Stations
Station Observations
INEWSOUT98
ArmidaleAU 2350

ArmidaleAU 2350

Lat: -30.517, Lon: 151.656

Elevation: 3265

Station Type: CampbellSci

http://www.armidaleweather.com

Latest ConditionsUpdated 4:30:01 AM GMT+10:10 Tuesday, Aug 21, 2018
Currently Today's Max Today's Min Today's Average
Temperature 27.8°F-2.3°C 30.2°F-1.0°C 27.1°F-2.7°C 28.2°F-2.1°C
Dew Point 21.9°F-5.6°C 23.5°F-4.7°C 18.9°F-7.3°C 20.4°F-6.4°C
Winds 3.5 mph W5.6 kmh W 3.5 mph -5.6 kmh - - 0.2 mph 0.3 kmh
Wind Gusts 3.5 mph5.6 kmh 3.5 mph5.6 kmh - -
Humidity 78% 84% 63% 72%
Pressure 30.09 in1019.0 mb 30.13 in1020.3 mb 30.09 in1019.0 mb -
Hour Temp Dew Point Humidity Winds Wind Gusts Pressure Precip Precip Rate Daily Precip Total
04:30 AM 27.8°F-2.3°C 21.9°F-5.6°C 78% 3.5 mph W5.6 kmh W 3.5 mph5.6 kmh 30.09 in1019.0 mb - 0.00 in0.0 mm 0.00 in0.0 mm
04:25 AM 27.9°F-2.3°C 21.9°F-5.6°C 78% Calm Calm -- 30.09 in1019.0 mb - 0.00 in0.0 mm 0.00 in0.0 mm
04:20 AM 27.9°F-2.3°C 22.3°F-5.4°C 79% Calm Calm -- 30.09 in1019.0 mb - 0.00 in0.0 mm 0.00 in0.0 mm
04:15 AM 28.0°F-2.2°C 22.3°F-5.4°C 79% Calm Calm -- 30.09 in1019.0 mb - 0.00 in0.0 mm 0.00 in0.0 mm
04:10 AM 28.0°F-2.2°C 22.6°F-5.2°C 80% Calm Calm -- 30.09 in1019.0 mb - 0.00 in0.0 mm 0.00 in0.0 mm
04:00 AM 28.0°F-2.2°C 22.9°F-5.1°C 81% Calm Calm -- 30.10 in1019.3 mb - 0.00 in0.0 mm 0.00 in0.0 mm
03:55 AM 27.9°F-2.3°C 23.1°F-4.9°C 82% Calm Calm -- 30.10 in1019.3 mb - 0.00 in0.0 mm 0.00 in0.0 mm
03:50 AM 27.9°F-2.3°C 23.4°F-4.8°C 83% Calm Calm -- 30.10 in1019.3 mb - 0.00 in0.0 mm 0.00 in0.0 mm
03:45 AM 27.8°F-2.3°C 23.3°F-4.8°C 83% 2.3 mph SW3.7 kmh SW 2.3 mph3.7 kmh 30.10 in1019.3 mb - 0.00 in0.0 mm 0.00 in0.0 mm
03:40 AM 27.7°F-2.4°C 23.2°F-4.9°C 83% Calm Calm -- 30.10 in1019.3 mb - 0.00 in0.0 mm 0.00 in0.0 mm
03:35 AM 27.7°F-2.4°C 23.5°F-4.7°C 84% 2.3 mph WNW3.7 kmh WNW 2.3 mph3.7 kmh 30.10 in1019.3 mb - 0.00 in0.0 mm 0.00 in0.0 mm
03:30 AM 27.6°F-2.4°C 23.4°F-4.8°C 84% Calm Calm -- 30.10 in1019.3 mb - 0.00 in0.0 mm 0.00 in0.0 mm
03:25 AM 27.4°F-2.6°C 23.2°F-4.9°C 84% 2.3 mph W3.7 kmh W 2.3 mph3.7 kmh 30.10 in1019.3 mb - 0.00 in0.0 mm 0.00 in0.0 mm
03:20 AM 27.3°F-2.6°C 22.5°F-5.3°C 82% Calm Calm -- 30.10 in1019.3 mb - 0.00 in0.0 mm 0.00 in0.0 mm
03:15 AM 27.2°F-2.7°C 22.1°F-5.5°C 81% Calm Calm -- 30.10 in1019.3 mb - 0.00 in0.0 mm 0.00 in0.0 mm
03:10 AM 27.2°F-2.7°C 21.8°F-5.7°C 80% Calm Calm 2.3 mph3.7 kmh 30.10 in1019.3 mb - 0.00 in0.0 mm 0.00 in0.0 mm
03:00 AM 27.1°F-2.7°C 21.1°F-6.1°C 78% Calm Calm -- 30.11 in1019.6 mb - 0.00 in0.0 mm 0.00 in0.0 mm
02:55 AM 27.1°F-2.7°C 20.5°F-6.4°C 76% Calm Calm -- 30.11 in1019.6 mb - 0.00 in0.0 mm 0.00 in0.0 mm
02:50 AM 27.1°F-2.7°C 19.6°F-6.9°C 73% Calm Calm -- 30.11 in1019.6 mb - 0.00 in0.0 mm 0.00 in0.0 mm
02:45 AM 27.2°F-2.7°C 19.4°F-7.0°C 72% Calm Calm -- 30.11 in1019.6 mb - 0.00 in0.0 mm 0.00 in0.0 mm
02:40 AM 27.3°F-2.6°C 19.4°F-7.0°C 72% Calm Calm -- 30.11 in1019.6 mb - 0.00 in0.0 mm 0.00 in0.0 mm
02:35 AM 27.3°F-2.6°C 19.2°F-7.1°C 71% Calm Calm -- 30.11 in1019.6 mb - 0.00 in0.0 mm 0.00 in0.0 mm
02:30 AM 27.4°F-2.6°C 19.2°F-7.1°C 71% Calm Calm -- 30.11 in1019.6 mb - 0.00 in0.0 mm 0.00 in0.0 mm
02:25 AM 27.4°F-2.6°C 19.3°F-7.1°C 71% Calm Calm -- 30.11 in1019.6 mb - 0.00 in0.0 mm 0.00 in0.0 mm
02:20 AM 27.5°F-2.5°C 19.0°F-7.2°C 70% Calm Calm -- 30.11 in1019.6 mb - 0.00 in0.0 mm 0.00 in0.0 mm
02:15 AM 27.6°F-2.4°C 19.1°F-7.2°C 70% Calm Calm -- 30.11 in1019.6 mb - 0.00 in0.0 mm 0.00 in0.0 mm
02:10 AM 27.7°F-2.4°C 19.1°F-7.2°C 70% Calm Calm -- 30.11 in1019.6 mb - 0.00 in0.0 mm 0.00 in0.0 mm
02:00 AM 27.8°F-2.3°C 19.3°F-7.1°C 70% Calm Calm -- 30.12 in1020.0 mb - 0.00 in0.0 mm 0.00 in0.0 mm
01:55 AM 27.9°F-2.3°C 19.1°F-7.2°C 69% Calm Calm -- 30.12 in1020.0 mb - 0.00 in0.0 mm 0.00 in0.0 mm
01:50 AM 28.0°F-2.2°C 19.2°F-7.1°C 69% Calm Calm -- 30.12 in1020.0 mb - 0.00 in0.0 mm 0.00 in0.0 mm
01:45 AM 28.1°F-2.2°C 19.2°F-7.1°C 69% Calm Calm -- 30.12 in1020.0 mb - 0.00 in0.0 mm 0.00 in0.0 mm
01:40 AM 28.2°F-2.1°C 19.0°F-7.2°C 68% Calm Calm -- 30.12 in1020.0 mb - 0.00 in0.0 mm 0.00 in0.0 mm
01:35 AM 28.3°F-2.1°C 19.1°F-7.2°C 68% Calm Calm -- 30.12 in1020.0 mb - 0.00 in0.0 mm 0.00 in0.0 mm
01:30 AM 28.5°F-1.9°C 18.9°F-7.3°C 67% Calm Calm -- 30.12 in1020.0 mb - 0.00 in0.0 mm 0.00 in0.0 mm
01:25 AM 28.5°F-1.9°C 18.9°F-7.3°C 67% Calm Calm -- 30.12 in1020.0 mb - 0.00 in0.0 mm 0.00 in0.0 mm
01:20 AM 28.7°F-1.8°C 19.1°F-7.2°C 67% Calm Calm -- 30.12 in1020.0 mb - 0.00 in0.0 mm 0.00 in0.0 mm
01:15 AM 28.8°F-1.8°C 19.2°F-7.1°C 67% Calm Calm -- 30.12 in1020.0 mb - 0.00 in0.0 mm 0.00 in0.0 mm
01:10 AM 28.9°F-1.7°C 18.9°F-7.3°C 66% Calm Calm -- 30.12 in1020.0 mb - 0.00 in0.0 mm 0.00 in0.0 mm
01:00 AM 29.1°F-1.6°C 19.1°F-7.2°C 66% Calm Calm -- 30.13 in1020.3 mb - 0.00 in0.0 mm 0.00 in0.0 mm
12:55 AM 29.2°F-1.6°C 18.9°F-7.3°C 65% Calm Calm -- 30.13 in1020.3 mb - 0.00 in0.0 mm 0.00 in0.0 mm
12:50 AM 29.3°F-1.5°C 19.0°F-7.2°C 65% Calm Calm -- 30.13 in1020.3 mb - 0.00 in0.0 mm 0.00 in0.0 mm
12:45 AM 29.3°F-1.5°C 19.0°F-7.2°C 65% Calm Calm -- 30.13 in1020.3 mb - 0.00 in0.0 mm 0.00 in0.0 mm
12:40 AM 29.4°F-1.4°C 19.1°F-7.2°C 65% Calm Calm -- 30.13 in1020.3 mb - 0.00 in0.0 mm 0.00 in0.0 mm
12:35 AM 29.5°F-1.4°C 19.2°F-7.1°C 65% Calm Calm -- 30.13 in1020.3 mb - 0.00 in0.0 mm 0.00 in0.0 mm
12:30 AM 29.6°F-1.3°C 19.7°F-6.8°C 66% Calm Calm -- 30.13 in1020.3 mb - 0.00 in0.0 mm 0.00 in0.0 mm
12:25 AM 29.8°F-1.2°C 19.4°F-7.0°C 65% Calm Calm -- 30.13 in1020.3 mb - 0.00 in0.0 mm 0.00 in0.0 mm
12:20 AM 29.9°F-1.2°C 19.2°F-7.1°C 64% Calm Calm -- 30.13 in1020.3 mb - 0.00 in0.0 mm 0.00 in0.0 mm
12:15 AM 30.0°F-1.1°C 19.3°F-7.1°C 64% Calm Calm -- 30.13 in1020.3 mb - 0.00 in0.0 mm 0.00 in0.0 mm
12:10 AM 30.1°F-1.1°C 19.4°F-7.0°C 64% Calm Calm -- 30.13 in1020.3 mb - 0.00 in0.0 mm 0.00 in0.0 mm
12:00 AM 30.2°F-1.0°C 19.1°F-7.2°C 63% Calm Calm -- 30.13 in1020.3 mb - 0.00 in0.0 mm 0.00 in0.0 mm